Choctaw Beach, Florida
Current Conditions -  °F | °C
As of 6:55 PM on Saturday 25 Oct 2014 (Local Time) from KVPS Reporting Station
Clear Clear  
Wind Chill: 69°   Ceiling: Unl
Heat Index: 69°   Visibility: 10mi
Dew Point: 50°   Wind: 5mph
Humidity: 51%   Direction: 350°N
Pressure: 30.03"   Gusts: NA
Location:  30.5136°N, 86.4378°W
Report Text: KVPS 252355Z 35004KT 10SM CLR 21/10 A3003 RMK AO2A SLP175 T02070102 10265 20205 53005 $
Loading
Personal Weather Stations






























Interactive Weather Map
Tropical Storm Tracking
New forecast layout! Learn more

10-Day Weather Forecast

Advertisements
Track Severe Weather on mobile